Terminal Aerodrome Forecast
Issued by NWS

Home | Current Version | Previous Version | Text Only | Print | Product List | Glossary On
Versions: 1 2 3 4 5 6 7 8 9 10 11 12 13 14 15 16 17 18 19 20 21 22 23 24 25 26 27
611
FTUS46 KMFR 270548
TAFRBG
TAF
KRBG 270548Z 2706/2806 VRB02KT 6SM -SHRA BR FEW008 BKN030 BKN050
     FM270900 17002KT 5SM -SHRASN SCT008 BKN010 OVC025
     FM271100 VRB02KT 3SM BR VCSH SCT003 BKN006 OVC025
     FM271800 17005KT 4SM -SHRA SCT008 BKN025 OVC035=

USA.gov is the U.S. government's official web portal to all federal, state and local government web resources and services.